Time;durP1;ratioP1;P1;durP2;ratioP2;P2;SDS_P1;SDS_P2;PMS_P1;PMS_P2;Temp;Humidity;BMP_temperature;BMP_pressure;BME280_temperature;BME280_humidity;BME280_pressure;Samples;Min_cycle;Max_cycle;Signal;HPM_P1;HPM_P2
2022/08/25 00:00:04;;;;;;;;;;;;;;;20.20;100.00;101535.06;6542282;22;19954;-84
2022/08/25 00:02:36;;;;;;;;;;;;;;;20.16;100.00;101541.84;6515280;22;19907;-84
2022/08/25 00:05:08;;;;;;;;;;;;;;;20.13;100.00;101537.66;6541915;22;19966;-84
2022/08/25 00:07:39;;;;;;;;;;;;;;;20.11;100.00;101537.03;6516486;22;19912;-84
2022/08/25 00:10:11;;;;;;;;;;;;;;;20.07;100.00;101534.88;6542125;22;19907;-84
2022/08/25 00:12:42;;;;;;;;;;;;;;;19.98;100.00;101537.66;6542199;22;19957;-84
2022/08/25 00:15:13;;;;;;;;;;;;;;;19.86;100.00;101535.63;6515677;22;19907;-83
2022/08/25 00:17:44;;;;;;;;;;;;;;;19.73;100.00;101536.25;6515852;22;20322;-83
2022/08/25 00:20:16;;;;;;;;;;;;;;;19.65;100.00;101537.16;6551691;22;19915;-83
2022/08/25 00:22:48;;;;;;;;;;;;;;;19.56;100.00;101533.72;6543742;22;20357;-83
2022/08/25 00:25:19;;;;;;;;;;;;;;;19.48;100.00;101533.81;6515938;22;19907;-83
2022/08/25 00:27:50;;;;;;;;;;;;;;;19.40;100.00;101532.00;6542073;22;19915;-83
2022/08/25 00:30:21;;;;;;;;;;;;;;;19.35;100.00;101531.72;6515855;22;19919;-84
2022/08/25 00:32:53;;;;;;;;;;;;;;;19.29;100.00;101534.34;6515570;22;19986;-83
2022/08/25 00:35:24;;;;;;;;;;;;;;;19.23;100.00;101534.03;6514555;22;19919;-83
2022/08/25 00:37:55;;;;;;;;;;;;;;;19.18;100.00;101541.88;6540993;22;19907;-83
2022/08/25 00:40:27;;;;;;;;;;;;;;;19.13;100.00;101546.16;6514283;22;19903;-83
2022/08/25 00:42:59;;;;;;;;;;;;;;;19.05;100.00;101545.16;6540409;22;19915;-83
2022/08/25 00:45:31;;;;;;;;;;;;;;;19.00;100.00;101544.88;6540573;22;19907;-84
2022/08/25 00:48:03;;;;;;;;;;;;;;;18.93;100.00;101549.31;6513911;22;19934;-83
2022/08/25 00:50:34;;;;;;;;;;;;;;;18.93;100.00;101537.66;6514082;22;19908;-84
2022/08/25 00:53:06;;;;;;;;;;;;;;;18.93;100.00;101543.06;6512380;22;19916;-83
2022/08/25 00:55:39;;;;;;;;;;;;;;;18.97;100.00;101541.69;6513959;22;19903;-84
2022/08/25 00:58:13;;;;;;;;;;;;;;;19.00;100.00;101544.88;6513889;22;20740;-83
2022/08/25 01:00:47;;;;;;;;;;;;;;;19.05;100.00;101533.50;6513625;22;19903;-83
2022/08/25 01:03:18;;;;;;;;;;;;;;;19.13;100.00;101538.88;6513508;22;19911;-83
2022/08/25 01:05:50;;;;;;;;;;;;;;;19.18;100.00;101544.56;6513119;22;19908;-83
2022/08/25 01:08:25;;;;;;;;;;;;;;;19.21;100.00;101548.75;6540350;22;19957;-83
2022/08/25 01:10:58;;;;;;;;;;;;;;;19.24;100.00;101538.41;6514285;22;19912;-83
2022/08/25 01:13:32;;;;;;;;;;;;;;;19.26;100.00;101533.66;6514609;22;19907;-83
2022/08/25 01:16:03;;;;;;;;;;;;;;;19.27;100.00;101532.66;6541519;22;20230;-83
2022/08/25 01:18:43;;;;;;;;;;;;;;;19.33;100.00;101530.25;6515253;22;19903;-83
2022/08/25 01:21:16;;;;;;;;;;;;;;;19.36;100.00;101532.59;6540917;22;19938;-83
2022/08/25 01:23:48;;;;;;;;;;;;;;;19.38;100.00;101531.34;6542550;22;19935;-83
2022/08/25 01:26:22;;;;;;;;;;;;;;;19.40;100.00;101532.00;6541093;22;19921;-83
2022/08/25 01:31:44;;;;;;;;;;;;;;;19.39;100.00;101535.75;6542435;22;19978;-83
2022/08/25 01:34:16;;;;;;;;;;;;;;;19.40;100.00;101540.13;6523936;22;20352;-82
2022/08/25 01:36:47;;;;;;;;;;;;;;;19.42;100.00;101534.53;6527523;22;19907;-83
2022/08/25 01:39:18;;;;;;;;;;;;;;;19.41;100.00;101532.88;6555556;22;19916;-82
2022/08/25 01:41:57;;;;;;;;;;;;;;;19.40;100.00;101536.59;6553813;22;19903;-83
2022/08/25 01:44:29;;;;;;;;;;;;;;;19.39;100.00;101532.19;6524965;22;19915;-83
2022/08/25 01:47:01;;;;;;;;;;;;;;;19.38;100.00;101534.06;6526177;22;19938;-83
2022/08/25 01:49:32;;;;;;;;;;;;;;;19.36;100.00;101533.41;6527146;22;19914;-83
2022/08/25 01:52:06;;;;;;;;;;;;;;;19.35;100.00;101531.72;6546699;22;20315;-83
2022/08/25 01:54:37;;;;;;;;;;;;;;;19.35;100.00;101530.88;6514269;22;19908;-83
2022/08/25 01:57:08;;;;;;;;;;;;;;;19.33;100.00;101531.06;6541986;22;19908;-83
2022/08/25 01:59:40;;;;;;;;;;;;;;;19.33;100.00;101538.34;6514816;22;19909;-83
2022/08/25 02:02:11;;;;;;;;;;;;;;;19.28;100.00;101528.06;6514825;22;19951;-83
2022/08/25 02:04:42;;;;;;;;;;;;;;;19.26;100.00;101533.66;6541823;22;19911;-83
2022/08/25 02:07:13;;;;;;;;;;;;;;;19.24;100.00;101535.72;6541682;22;19911;-83
2022/08/25 02:09:45;;;;;;;;;;;;;;;19.22;100.00;101528.81;6514195;22;19910;-83
2022/08/25 02:12:16;;;;;;;;;;;;;;;19.18;100.00;101531.06;6541807;22;19955;-83
2022/08/25 02:14:47;;;;;;;;;;;;;;;19.12;100.00;101525.53;6541904;22;19907;-83
2022/08/25 02:17:18;;;;;;;;;;;;;;;19.08;100.00;101528.59;6514777;22;19904;-83
2022/08/25 02:19:50;;;;;;;;;;;;;;;19.05;100.00;101520.84;6514654;22;20284;-83
2022/08/25 02:22:22;;;;;;;;;;;;;;;19.03;100.00;101522.06;6541203;22;19908;-83
2022/08/25 02:24:54;;;;;;;;;;;;;;;18.99;100.00;101528.84;6513984;22;19907;-83
2022/08/25 02:27:25;;;;;;;;;;;;;;;18.95;100.00;101531.09;6541741;22;19908;-83
2022/08/25 02:29:56;;;;;;;;;;;;;;;18.92;100.00;101525.19;6514964;22;19910;-83
2022/08/25 02:32:27;;;;;;;;;;;;;;;18.89;100.00;101526.38;6541616;22;19907;-83
2022/08/25 02:34:59;;;;;;;;;;;;;;;18.87;100.00;101518.44;6513887;22;19923;-83
2022/08/25 02:37:30;;;;;;;;;;;;;;;18.88;100.00;101519.28;6514301;22;20002;-84
2022/08/25 02:40:02;;;;;;;;;;;;;;;18.86;100.00;101519.50;6541703;22;19930;-83
2022/08/25 02:42:33;;;;;;;;;;;;;;;18.85;100.00;101519.66;6514670;22;19957;-84
2022/08/25 02:45:06;;;;;;;;;;;;;;;18.84;100.00;101521.50;6540998;22;19907;-82
2022/08/25 02:47:37;;;;;;;;;;;;;;;18.81;100.00;101526.41;6514907;22;19915;-83
2022/08/25 02:50:09;;;;;;;;;;;;;;;18.80;100.00;101522.03;6515223;22;20016;-83
2022/08/25 02:52:40;;;;;;;;;;;;;;;18.74;100.00;101518.19;6540840;22;19965;-83
2022/08/25 02:55:12;;;;;;;;;;;;;;;18.69;100.00;101513.31;6541485;22;19907;-83
2022/08/25 02:57:44;;;;;;;;;;;;;;;18.67;100.00;101507.25;6541197;22;20250;-83
2022/08/25 03:00:15;;;;;;;;;;;;;;;18.67;100.00;101512.66;6541604;22;19914;-83
2022/08/25 03:02:46;;;;;;;;;;;;;;;18.66;100.00;101505.56;6541823;22;19903;-83
2022/08/25 03:05:18;;;;;;;;;;;;;;;18.64;100.00;101512.19;6514325;22;19917;-83
2022/08/25 03:07:51;;;;;;;;;;;;;;;18.65;100.00;101509.31;6541059;22;19907;-83
2022/08/25 03:10:22;;;;;;;;;;;;;;;18.67;100.00;101507.25;6541587;22;20830;-83
2022/08/25 03:12:54;;;;;;;;;;;;;;;18.67;100.00;101504.56;6541933;22;19914;-83
2022/08/25 03:15:26;;;;;;;;;;;;;;;18.66;100.00;101496.63;6541943;22;19907;-83
2022/08/25 03:17:58;;;;;;;;;;;;;;;18.65;100.00;101498.50;6540793;22;19910;-83
2022/08/25 03:20:29;;;;;;;;;;;;;;;18.66;100.00;101493.94;6513779;22;19911;-83
2022/08/25 03:23:01;;;;;;;;;;;;;;;18.66;100.00;101488.53;6513785;22;19918;-83
2022/08/25 03:28:22;;;;;;;;;;;;;;;18.66;100.00;101493.94;6541016;22;19903;-83
2022/08/25 03:30:54;;;;;;;;;;;;;;;18.64;100.00;101485.16;6556370;22;19927;-83
2022/08/25 03:33:26;;;;;;;;;;;;;;;18.66;100.00;101483.13;6566159;22;19917;-83
2022/08/25 03:35:58;;;;;;;;;;;;;;;18.64;100.00;101480.59;6521822;22;19916;-83
2022/08/25 03:38:29;;;;;;;;;;;;;;;18.66;100.00;101485.81;6517709;22;19904;-83
2022/08/25 03:41:00;;;;;;;;;;;;;;;18.66;100.00;101483.13;6518519;22;19989;-83
2022/08/25 03:43:32;;;;;;;;;;;;;;;18.69;100.00;101472.78;6544050;22;19907;-83
2022/08/25 03:46:03;;;;;;;;;;;;;;;18.71;100.00;101475.31;6542248;22;19912;-83
2022/08/25 03:48:34;;;;;;;;;;;;;;;18.74;100.00;101477.66;6541370;22;19903;-83
2022/08/25 03:51:06;;;;;;;;;;;;;;;18.75;100.00;101471.22;6514693;22;20038;-83
2022/08/25 03:53:37;;;;;;;;;;;;;;;18.74;100.00;101472.25;6513615;22;20324;-82
2022/08/25 03:56:09;;;;;;;;;;;;;;;18.74;100.00;101471.41;6514727;22;19974;-83
2022/08/25 03:58:40;;;;;;;;;;;;;;;18.75;100.00;101462.28;6540924;22;19914;-83
2022/08/25 04:01:12;;;;;;;;;;;;;;;18.73;100.00;101459.75;6542331;22;19907;-83
2022/08/25 04:03:43;;;;;;;;;;;;;;;18.75;100.00;101463.13;6513159;22;19910;-83
2022/08/25 04:06:15;;;;;;;;;;;;;;;18.78;100.00;101462.75;6514344;22;19907;-83
2022/08/25 04:08:47;;;;;;;;;;;;;;;18.80;100.00;101457.19;6541090;22;19908;-83
2022/08/25 04:11:20;;;;;;;;;;;;;;;18.82;100.00;101447.06;6514575;22;20281;-83
2022/08/25 04:13:52;;;;;;;;;;;;;;;18.84;100.00;101455.81;6514468;22;19978;-82
2022/08/25 04:16:26;;;;;;;;;;;;;;;18.91;100.00;101456.75;6541998;22;19912;-83
2022/08/25 04:18:59;;;;;;;;;;;;;;;18.94;100.00;101458.28;6513906;22;19914;-83
2022/08/25 04:21:31;;;;;;;;;;;;;;;19.00;100.00;101458.34;6515028;22;20395;-83
2022/08/25 04:24:02;;;;;;;;;;;;;;;19.04;100.00;101458.84;6514815;22;19911;-83
2022/08/25 04:26:36;;;;;;;;;;;;;;;19.08;100.00;101455.59;6513351;22;20009;-83
2022/08/25 04:29:08;;;;;;;;;;;;;;;19.07;100.00;101456.63;6539522;22;19982;-82
2022/08/25 04:31:41;;;;;;;;;;;;;;;19.09;100.00;101451.00;6513652;22;20326;-82
2022/08/25 04:34:12;;;;;;;;;;;;;;;19.12;100.00;101444.41;6539989;22;19927;-83
2022/08/25 04:36:43;;;;;;;;;;;;;;;19.14;100.00;101442.34;6514178;22;19958;-83
2022/08/25 04:39:14;;;;;;;;;;;;;;;19.14;100.00;101445.06;6540626;22;19954;-83
2022/08/25 04:41:46;;;;;;;;;;;;;;;19.15;100.00;101430.53;6540560;22;20281;-84
2022/08/25 04:44:17;;;;;;;;;;;;;;;19.15;100.00;101436.78;6540723;22;19903;-83
2022/08/25 04:46:49;;;;;;;;;;;;;;;19.15;100.00;101436.78;6541364;22;20223;-82
2022/08/25 04:49:20;;;;;;;;;;;;;;;19.14;100.00;101436.94;6540602;22;19911;-83
2022/08/25 04:51:51;;;;;;;;;;;;;;;19.15;100.00;101430.53;6540315;22;19930;-83
2022/08/25 04:54:22;;;;;;;;;;;;;;;19.14;100.00;101429.66;6514439;22;19927;-83
2022/08/25 04:56:54;;;;;;;;;;;;;;;19.17;100.00;101432.00;6541654;22;19951;-83
2022/08/25 04:59:25;;;;;;;;;;;;;;;19.18;100.00;101430.13;6540210;22;19941;-83
2022/08/25 05:02:00;;;;;;;;;;;;;;;19.18;100.00;101440.94;6540629;22;19918;-83
2022/08/25 05:04:33;;;;;;;;;;;;;;;19.20;100.00;101430.81;6513172;22;19907;-83
2022/08/25 05:07:05;;;;;;;;;;;;;;;19.21;100.00;101436.00;6511940;22;19982;-83
2022/08/25 05:09:36;;;;;;;;;;;;;;;19.25;100.00;101445.47;6539592;22;20026;-83
2022/08/25 05:12:07;;;;;;;;;;;;;;;19.28;100.00;101444.22;6513352;22;19912;-83
2022/08/25 05:14:39;;;;;;;;;;;;;;;19.32;100.00;101442.84;6512761;22;19990;-83
2022/08/25 05:17:10;;;;;;;;;;;;;;;19.38;100.00;101450.22;6510884;22;20497;-83
2022/08/25 05:19:41;;;;;;;;;;;;;;;19.48;100.00;101458.06;6539720;22;19934;-83
2022/08/25 05:22:13;;;;;;;;;;;;;;;19.62;100.00;101456.38;6513015;22;19903;-83
2022/08/25 05:24:44;;;;;;;;;;;;;;;19.77;100.00;101464.50;6513199;22;19903;-83
2022/08/25 05:27:15;;;;;;;;;;;;;;;19.95;100.00;101458.69;6513600;22;20725;-84
2022/08/25 05:29:46;;;;;;;;;;;;;;;20.19;100.00;101468.34;6538665;22;19926;-84
2022/08/25 05:32:17;;;;;;;;;;;;;;;20.46;100.00;101466.78;6540170;22;19915;-84
2022/08/25 05:34:49;;;;;;;;;;;;;;;20.78;100.00;101461.91;6513214;22;20290;-83
2022/08/25 05:37:20;;;;;;;;;;;;;;;21.04;100.00;101472.13;6540461;22;19904;-83
2022/08/25 05:39:52;;;;;;;;;;;;;;;21.28;100.00;101470.00;6513032;22;20249;-83
2022/08/25 05:42:23;;;;;;;;;;;;;;;21.47;100.00;101463.91;6539472;22;19907;-83
2022/08/25 05:44:54;;;;;;;;;;;;;;;21.63;100.00;101461.91;6540026;22;19911;-83
2022/08/25 05:47:25;;;;;;;;;;;;;;;21.81;100.00;101469.50;6540184;22;20018;-83
2022/08/25 05:49:57;;;;;;;;;;;;;;;21.97;100.00;101468.34;6539221;22;19903;-83
2022/08/25 05:52:28;;;;;;;;;;;;;;;22.12;100.00;101473.59;6512999;22;19990;-83
2022/08/25 05:55:00;;;;;;;;;;;;;;;22.25;100.00;101474.50;6540954;22;20289;-83
2022/08/25 05:57:32;;;;;;;;;;;;;;;22.39;100.00;101480.00;6514351;22;19904;-83
2022/08/25 06:00:04;;;;;;;;;;;;;;;22.60;100.00;101474.38;6514410;22;19909;-83
2022/08/25 06:02:43;;;;;;;;;;;;;;;22.80;100.00;101484.44;6541526;22;19904;-83
2022/08/25 06:05:19;;;;;;;;;;;;;;;23.00;100.00;101481.72;6514283;22;19908;-83
2022/08/25 06:07:50;;;;;;;;;;;;;;;23.24;100.00;101487.63;6541379;22;19918;-83
2022/08/25 06:10:22;;;;;;;;;;;;;;;23.48;100.00;101480.69;6514400;22;19911;-83
2022/08/25 06:12:53;;;;;;;;;;;;;;;23.74;100.00;101474.31;6523366;22;19917;-83
2022/08/25 06:15:24;;;;;;;;;;;;;;;24.02;100.00;101479.47;6544367;22;19977;-82
2022/08/25 06:18:00;;;;;;;;;;;;;;;24.24;100.00;101471.81;6514013;22;20017;-82
2022/08/25 06:20:31;;;;;;;;;;;;;;;24.48;100.00;101477.53;6540021;22;20420;-83
2022/08/25 06:23:03;;;;;;;;;;;;;;;24.66;100.00;101471.38;6515127;22;19904;-83
2022/08/25 06:25:34;;;;;;;;;;;;;;;24.96;100.00;101479.72;6513501;22;19923;-83
2022/08/25 06:28:05;;;;;;;;;;;;;;;25.22;100.00;101477.81;6514260;22;19930;-83
2022/08/25 06:30:38;;;;;;;;;;;;;;;25.43;100.00;101479.31;6541160;22;19910;-83
2022/08/25 06:33:09;;;;;;;;;;;;;;;25.63;100.00;101482.69;6515092;22;19903;-83
2022/08/25 06:35:42;;;;;;;;;;;;;;;25.85;100.00;101483.03;6514571;22;20590;-83
2022/08/25 06:38:13;;;;;;;;;;;;;;;26.08;100.00;101481.53;6541912;22;19907;-83
2022/08/25 06:40:46;;;;;;;;;;;;;;;26.37;100.00;101479.88;6514444;22;19910;-83
2022/08/25 06:43:18;;;;;;;;;;;;;;;26.61;100.00;101477.19;6514453;22;19916;-82
2022/08/25 06:45:49;;;;;;;;;;;;;;;26.89;100.00;101476.56;6514211;22;20338;-82
2022/08/25 06:48:22;;;;;;;;;;;;;;;27.19;100.00;101472.06;6514195;22;19907;-82
2022/08/25 06:50:53;;;;;;;;;;;;;;;27.53;100.00;101476.69;6541522;22;19911;-82
2022/08/25 06:53:25;;;;;;;;;;;;;;;27.80;100.00;101478.09;6514052;22;19907;-82
2022/08/25 06:55:56;;;;;;;;;;;;;;;27.99;96.28;101476.03;6541164;22;20318;-82
2022/08/25 06:58:28;;;;;;;;;;;;;;;28.32;94.14;101477.22;6541534;22;20378;-83
2022/08/25 07:01:10;;;;;;;;;;;;;;;28.62;93.92;101476.97;6514554;22;19982;-83
2022/08/25 07:03:42;;;;;;;;;;;;;;;29.01;86.73;101479.78;6540884;22;19947;-82
2022/08/25 07:06:14;;;;;;;;;;;;;;;29.30;88.04;101474.22;6514038;22;19919;-82
2022/08/25 07:08:46;;;;;;;;;;;;;;;29.52;79.72;101469.56;6540297;22;20258;-82
2022/08/25 07:11:19;;;;;;;;;;;;;;;29.69;78.86;101471.44;6513814;22;19907;-83
2022/08/25 07:13:50;;;;;;;;;;;;;;;29.81;77.58;101460.34;6514384;22;19903;-82
2022/08/25 07:16:22;;;;;;;;;;;;;;;29.85;75.72;101459.56;6513465;22;20329;-82
2022/08/25 07:18:56;;;;;;;;;;;;;;;29.95;74.27;101459.69;6545275;22;19935;-81
2022/08/25 07:21:29;;;;;;;;;;;;;;;30.02;77.09;101459.47;6523628;22;19903;-82
2022/08/25 07:24:02;;;;;;;;;;;;;;;30.10;74.89;101455.44;6552927;22;19991;-82
2022/08/25 07:26:34;;;;;;;;;;;;;;;30.32;76.77;101466.41;6552187;22;19907;-82
2022/08/25 07:29:08;;;;;;;;;;;;;;;30.67;69.23;101470.59;6549202;22;19919;-82
2022/08/25 07:31:39;;;;;;;;;;;;;;;31.08;62.00;101459.91;6549265;22;19923;-82
2022/08/25 07:37:03;;;;;;;;;;;;;;;31.90;60.43;101454.81;6545160;22;19908;-83
2022/08/25 07:39:34;;;;;;;;;;;;;;;32.23;60.93;101458.25;6541757;22;19953;-82
2022/08/25 07:42:06;;;;;;;;;;;;;;;32.48;58.67;101453.84;6540900;22;19978;-83
2022/08/25 07:44:37;;;;;;;;;;;;;;;32.85;57.06;101455.53;6541514;22;19907;-83
2022/08/25 07:47:09;;;;;;;;;;;;;;;33.10;57.77;101452.72;6540798;22;19985;-82
2022/08/25 07:49:40;;;;;;;;;;;;;;;33.40;49.89;101464.00;6542828;22;19907;-83
2022/08/25 07:52:11;;;;;;;;;;;;;;;33.61;47.89;101461.97;6542193;22;19911;-82
2022/08/25 07:54:43;;;;;;;;;;;;;;;33.95;49.54;101448.28;6543076;22;19904;-83
2022/08/25 07:57:14;;;;;;;;;;;;;;;34.39;48.27;101444.69;6543259;22;19907;-83
2022/08/25 07:59:45;;;;;;;;;;;;;;;34.77;45.63;101450.50;6513955;22;19907;-83
2022/08/25 08:02:17;;;;;;;;;;;;;;;35.22;45.43;101453.97;6515647;22;20242;-83
2022/08/25 08:04:49;;;;;;;;;;;;;;;35.74;44.66;101453.34;6513045;22;19914;-83
2022/08/25 08:07:23;;;;;;;;;;;;;;;36.24;40.92;101448.22;6515087;22;20334;-83
2022/08/25 08:09:55;;;;;;;;;;;;;;;36.76;38.37;101453.75;6513763;22;19903;-83
2022/08/25 08:12:26;;;;;;;;;;;;;;;37.20;39.57;101446.00;6540923;22;19931;-83
2022/08/25 08:14:58;;;;;;;;;;;;;;;37.48;38.50;101444.03;6540710;22;20352;-83
2022/08/25 08:17:30;;;;;;;;;;;;;;;37.84;35.98;101444.09;6540459;22;20326;-83
2022/08/25 08:20:05;;;;;;;;;;;;;;;38.21;35.71;101442.16;6540245;22;19907;-83
2022/08/25 08:22:38;;;;;;;;;;;;;;;38.52;35.63;101446.97;6540421;22;19962;-83
2022/08/25 08:25:09;;;;;;;;;;;;;;;38.70;34.64;101444.31;6540969;22;19983;-83
2022/08/25 08:27:41;;;;;;;;;;;;;;;39.03;35.44;101444.00;6539970;22;19931;-82
2022/08/25 08:30:13;;;;;;;;;;;;;;;39.45;33.66;101450.06;6539829;22;19911;-83
2022/08/25 08:32:44;;;;;;;;;;;;;;;40.05;30.85;101448.53;6540525;22;19904;-83
2022/08/25 08:35:17;;;;;;;;;;;;;;;40.52;31.03;101450.63;6514716;22;19914;-82
2022/08/25 08:37:48;;;;;;;;;;;;;;;40.89;28.74;101446.28;6539296;22;19911;-83
2022/08/25 08:40:20;;;;;;;;;;;;;;;41.00;30.28;101438.34;6540015;22;20041;-83
2022/08/25 08:43:02;;;;;;;;;;;;;;;41.12;28.34;101441.25;6539501;22;19915;-82
2022/08/25 08:45:42;;;;;;;;;;;;;;;41.33;29.42;101443.31;6513483;22;19904;-82
2022/08/25 08:48:32;;;;;;;;;;;;;;;41.56;29.61;101441.03;6541332;22;19904;-82
2022/08/25 08:51:15;;;;;;;;;;;;;;;41.72;27.71;101436.50;6540573;22;19904;-83
2022/08/25 08:54:03;;;;;;;;;;;;;;;41.90;27.63;101445.59;6513413;22;19914;-82
2022/08/25 08:56:37;;;;;;;;;;;;;;;42.46;26.95;101439.63;6540073;22;20392;-82
2022/08/25 08:59:11;;;;;;;;;;;;;;;42.86;27.21;101427.00;6514263;22;20384;-82
2022/08/25 09:01:47;;;;;;;;;;;;;;;43.49;25.46;101439.91;6513572;22;19958;-83
2022/08/25 09:04:26;;;;;;;;;;;;;;;44.03;25.95;101436.72;6512342;22;19912;-82
2022/08/25 09:06:58;;;;;;;;;;;;;;;44.62;24.45;101434.34;6539805;22;20486;-82
2022/08/25 09:09:31;;;;;;;;;;;;;;;45.55;24.19;101435.81;6540812;22;19904;-83
2022/08/25 09:12:22;;;;;;;;;;;;;;;46.73;22.67;101438.22;6513319;22;19914;-83
2022/08/25 09:14:58;;;;;;;;;;;;;;;46.88;22.12;101444.94;6513832;22;19908;-83
2022/08/25 09:18:05;;;;;;;;;;;;;;;46.65;21.46;101444.13;6512356;22;19908;-84
2022/08/25 09:20:37;;;;;;;;;;;;;;;47.37;20.33;101437.66;6346029;23;19910;-83
2022/08/25 09:23:08;;;;;;;;;;;;;;;48.30;19.81;101423.88;6482816;22;19903;-83
2022/08/25 09:25:40;;;;;;;;;;;;;;;49.02;19.26;101438.69;6539245;22;19913;-83
2022/08/25 09:28:20;;;;;;;;;;;;;;;49.73;17.79;101434.69;6513963;22;19907;-83
2022/08/25 09:31:23;;;;;;;;;;;;;;;49.63;17.52;101432.63;6548765;22;19887;-83
2022/08/25 09:33:56;;;;;;;;;;;;;;;49.10;17.58;101434.72;6467100;22;20264;-84
2022/08/25 09:36:27;;;;;;;;;;;;;;;49.05;17.25;101431.44;6547539;22;20238;-83
2022/08/25 09:38:58;;;;;;;;;;;;;;;49.50;16.96;101424.47;6545970;22;19907;-83
2022/08/25 09:41:34;;;;;;;;;;;;;;;50.22;15.95;101424.75;6548811;22;19930;-83
2022/08/25 09:44:14;;;;;;;;;;;;;;;49.67;15.46;101420.09;6517335;22;19904;-84
2022/08/25 09:47:00;;;;;;;;;;;;;;;49.72;16.14;101414.00;6514528;22;19990;-84
2022/08/25 09:49:43;;;;;;;;;;;;;;;50.53;16.57;101424.38;6515046;22;19987;-83
2022/08/25 09:52:17;;;;;;;;;;;;;;;51.58;17.62;101420.19;6542016;22;19965;-83
2022/08/25 09:54:49;;;;;;;;;;;;;;;52.46;14.85;101407.88;6515358;22;19911;-83
2022/08/25 09:57:27;;;;;;;;;;;;;;;53.29;13.06;101407.94;6514552;22;19907;-83
2022/08/25 10:00:13;;;;;;;;;;;;;;;54.17;13.21;101407.13;6514656;22;20313;-84
2022/08/25 10:03:00;;;;;;;;;;;;;;;54.63;14.65;101396.22;6514878;22;19907;-83
2022/08/25 10:05:34;;;;;;;;;;;;;;;54.12;14.01;101389.72;6514375;22;20326;-84
2022/08/25 10:08:13;;;;;;;;;;;;;;;53.76;12.45;101381.66;6514353;22;19927;-82
2022/08/25 10:10:51;;;;;;;;;;;;;;;54.10;13.21;101386.50;6515065;22;19903;-81
2022/08/25 10:13:32;;;;;;;;;;;;;;;54.58;12.48;101376.72;6515288;22;19908;-81
2022/08/25 10:16:09;;;;;;;;;;;;;;;54.57;11.73;101373.09;6541911;22;19911;-82
2022/08/25 10:18:40;;;;;;;;;;;;;;;53.75;12.09;101375.16;6514027;22;19914;-82
2022/08/25 10:21:14;;;;;;;;;;;;;;;50.10;13.98;101374.84;6542254;22;19903;-82
2022/08/25 10:23:50;;;;;;;;;;;;;;;50.26;14.27;101368.03;6541529;22;19927;-81
2022/08/25 10:26:28;;;;;;;;;;;;;;;50.16;13.97;101357.47;6540585;22;20224;-82
2022/08/25 10:29:14;;;;;;;;;;;;;;;49.49;13.90;101349.16;6541874;22;19941;-82
2022/08/25 10:32:05;;;;;;;;;;;;;;;46.37;15.68;101352.16;6541238;22;20322;-82
2022/08/25 10:34:42;;;;;;;;;;;;;;;46.20;16.02;101345.00;6509629;22;19986;-82
2022/08/25 10:37:16;;;;;;;;;;;;;;;46.86;16.48;101333.63;6542172;22;20038;-83
2022/08/25 10:40:00;;;;;;;;;;;;;;;46.35;16.50;101334.78;6541990;22;19956;-82
2022/08/25 10:42:40;;;;;;;;;;;;;;;46.57;16.74;101338.84;6541130;22;19903;-83
2022/08/25 10:48:25;;;;;;;;;;;;;;;45.15;18.21;101315.88;6541519;22;19982;-83
2022/08/25 10:50:56;;;;;;;;;;;;;;;45.22;18.33;101322.50;6540547;22;19903;-82
2022/08/25 10:53:33;;;;;;;;;;;;;;;45.86;17.66;101322.22;6541566;22;19938;-83
2022/08/25 10:56:16;;;;;;;;;;;;;;;46.39;17.88;101316.75;6514040;22;19978;-82
2022/08/25 10:59:00;;;;;;;;;;;;;;;46.84;17.71;101319.09;6514293;22;19954;-82
2022/08/25 11:01:38;;;;;;;;;;;;;;;47.29;17.42;101314.50;6541412;22;19908;-82
2022/08/25 11:04:24;;;;;;;;;;;;;;;47.51;17.01;101307.09;6541497;22;19911;-83
2022/08/25 11:07:02;;;;;;;;;;;;;;;47.95;17.13;101322.53;6540952;22;19908;-83
2022/08/25 11:09:38;;;;;;;;;;;;;;;48.93;15.99;101310.84;6542512;22;19908;-83
2022/08/25 11:12:11;;;;;;;;;;;;;;;49.82;15.87;101313.25;6542090;22;19931;-83
2022/08/25 11:14:46;;;;;;;;;;;;;;;51.22;15.94;101303.84;6541259;22;20605;-83
2022/08/25 11:17:25;;;;;;;;;;;;;;;52.71;14.27;101305.22;6541405;22;19912;-82
2022/08/25 11:20:00;;;;;;;;;;;;;;;53.42;14.45;101302.72;6541333;22;19908;-83
2022/08/25 11:22:45;;;;;;;;;;;;;;;53.66;12.48;101298.72;6542262;22;19915;-83
2022/08/25 11:25:28;;;;;;;;;;;;;;;54.12;12.11;101298.44;6541988;22;19907;-83
2022/08/25 11:28:06;;;;;;;;;;;;;;;54.70;12.32;101296.16;6540817;22;19911;-84
2022/08/25 11:30:37;;;;;;;;;;;;;;;55.60;11.32;101296.31;6541243;22;19965;-83
2022/08/25 11:33:12;;;;;;;;;;;;;;;56.28;11.93;101288.09;6514909;22;19908;-84
2022/08/25 11:35:50;;;;;;;;;;;;;;;56.78;10.89;101289.59;6542085;22;20286;-84
2022/08/25 11:38:27;;;;;;;;;;;;;;;57.00;10.83;101287.69;6514548;22;19907;-84
2022/08/25 11:41:15;;;;;;;;;;;;;;;56.56;10.50;101292.25;6542388;22;19907;-83
2022/08/25 11:44:10;;;;;;;;;;;;;;;57.29;11.23;101283.16;6540845;22;20002;-84
2022/08/25 11:46:56;;;;;;;;;;;;;;;57.57;10.98;101278.59;6455450;22;19907;-83
2022/08/25 11:49:36;;;;;;;;;;;;;;;58.06;10.17;101283.13;6541001;22;19907;-84
2022/08/25 11:52:26;;;;;;;;;;;;;;;58.12;9.87;101284.91;6541501;22;19922;-83
2022/08/25 11:55:09;;;;;;;;;;;;;;;58.12;10.27;101282.03;6546494;22;19979;-83
2022/08/25 11:57:42;;;;;;;;;;;;;;;58.21;10.28;101284.19;6514410;22;19904;-83
2022/08/25 12:00:33;;;;;;;;;;;;;;;58.53;9.67;101278.56;6514580;22;19915;-84
2022/08/25 12:03:24;;;;;;;;;;;;;;;57.84;9.83;101280.16;6524477;22;19950;-84
2022/08/25 12:06:18;;;;;;;;;;;;;;;55.41;10.73;101277.94;6539614;22;19918;-83
2022/08/25 12:08:59;;;;;;;;;;;;;;;54.89;11.44;101268.06;6488722;22;19954;-84
2022/08/25 12:11:41;;;;;;;;;;;;;;;54.84;11.41;101263.63;6536947;22;20248;-84
2022/08/25 12:14:12;;;;;;;;;;;;;;;55.11;10.74;101263.50;6538660;22;19914;-83
2022/08/25 12:16:50;;;;;;;;;;;;;;;55.00;10.40;101268.63;6512904;22;19982;-83
2022/08/25 12:19:33;;;;;;;;;;;;;;;54.82;10.84;101260.41;6512509;22;19907;-83
2022/08/25 12:22:07;;;;;;;;;;;;;;;54.86;11.29;101249.72;6539534;22;19903;-83
2022/08/25 12:24:41;;;;;;;;;;;;;;;55.55;11.07;101251.91;6538820;22;19913;-83
2022/08/25 12:27:31;;;;;;;;;;;;;;;56.25;10.57;101252.59;6512087;22;19973;-83
2022/08/25 12:30:02;;;;;;;;;;;;;;;57.27;10.64;101251.28;6512928;22;19973;-83
2022/08/25 12:32:52;;;;;;;;;;;;;;;57.85;9.60;101244.50;6541293;22;19904;-83
2022/08/25 12:35:25;;;;;;;;;;;;;;;57.91;10.50;101248.34;6541200;22;19910;-83
2022/08/25 12:37:59;;;;;;;;;;;;;;;58.23;10.03;101250.13;6513706;22;19959;-83
2022/08/25 12:40:42;;;;;;;;;;;;;;;56.09;9.64;101241.94;6513441;22;19903;-83
2022/08/25 12:43:28;;;;;;;;;;;;;;;55.71;10.53;101231.09;6511329;22;20226;-82
2022/08/25 12:46:18;;;;;;;;;;;;;;;56.18;10.16;101225.00;6538503;22;19911;-83
2022/08/25 12:48:52;;;;;;;;;;;;;;;56.53;9.73;101225.25;6538854;22;19914;-83
2022/08/25 12:51:25;;;;;;;;;;;;;;;56.34;10.03;101226.16;6538302;22;19978;-83
2022/08/25 12:54:00;;;;;;;;;;;;;;;56.12;9.92;101226.75;6540411;22;19907;-84
2022/08/25 12:56:34;;;;;;;;;;;;;;;56.18;9.87;101225.00;6540355;22;19953;-83
2022/08/25 12:59:15;;;;;;;;;;;;;;;56.07;9.87;101218.72;6539345;22;20382;-83
2022/08/25 13:01:55;;;;;;;;;;;;;;;55.23;10.27;101221.22;6540934;22;19907;-84
2022/08/25 13:04:47;;;;;;;;;;;;;;;54.95;10.71;101217.72;6550968;22;19912;-83
2022/08/25 13:07:41;;;;;;;;;;;;;;;55.39;10.83;101226.97;6554480;22;20026;-83
2022/08/25 13:10:36;;;;;;;;;;;;;;;55.76;10.29;101209.72;6534248;22;19927;-84
2022/08/25 13:13:25;;;;;;;;;;;;;;;56.44;10.00;101210.75;6556437;22;19911;-84
2022/08/25 13:15:59;;;;;;;;;;;;;;;56.83;9.80;101205.97;6548806;22;19931;-84
2022/08/25 13:18:31;;;;;;;;;;;;;;;56.92;9.64;101211.03;6550685;22;19942;-84
2022/08/25 13:21:02;;;;;;;;;;;;;;;57.10;9.64;101210.47;6559069;22;19902;-83